sensor_id;sensor_type;location;lat;lon;timestamp;P1;durP1;ratioP1;P2;durP2;ratioP2
2211;SDS011;48849;48.758;9.158;2023-06-10T00:00:22;8.50;;;7.70;;
2211;SDS011;48849;48.758;9.158;2023-06-10T00:02:51;9.40;;;8.60;;
2211;SDS011;48849;48.758;9.158;2023-06-10T00:05:17;9.37;;;8.47;;
2211;SDS011;48849;48.758;9.158;2023-06-10T00:07:46;8.93;;;8.10;;
2211;SDS011;48849;48.758;9.158;2023-06-10T00:10:14;8.17;;;7.37;;
2211;SDS011;48849;48.758;9.158;2023-06-10T00:12:41;9.33;;;8.37;;
2211;SDS011;48849;48.758;9.158;2023-06-10T00:15:10;8.77;;;7.97;;
2211;SDS011;48849;48.758;9.158;2023-06-10T00:17:37;9.03;;;8.33;;
2211;SDS011;48849;48.758;9.158;2023-06-10T00:20:06;8.17;;;7.57;;
2211;SDS011;48849;48.758;9.158;2023-06-10T00:22:36;10.20;;;7.60;;
2211;SDS011;48849;48.758;9.158;2023-06-10T00:25:03;8.93;;;8.10;;
2211;SDS011;48849;48.758;9.158;2023-06-10T00:27:31;9.63;;;8.63;;
2211;SDS011;48849;48.758;9.158;2023-06-10T00:30:00;8.90;;;8.20;;
2211;SDS011;48849;48.758;9.158;2023-06-10T00:32:30;8.27;;;7.67;;
2211;SDS011;48849;48.758;9.158;2023-06-10T00:34:57;9.40;;;8.60;;
2211;SDS011;48849;48.758;9.158;2023-06-10T00:37:24;9.40;;;8.50;;
2211;SDS011;48849;48.758;9.158;2023-06-10T00:39:52;8.93;;;8.17;;
2211;SDS011;48849;48.758;9.158;2023-06-10T00:42:19;9.23;;;8.53;;
2211;SDS011;48849;48.758;9.158;2023-06-10T00:44:47;9.33;;;8.53;;
2211;SDS011;48849;48.758;9.158;2023-06-10T00:47:14;8.20;;;7.50;;
2211;SDS011;48849;48.758;9.158;2023-06-10T00:49:42;9.80;;;8.90;;
2211;SDS011;48849;48.758;9.158;2023-06-10T00:52:10;9.03;;;8.33;;
2211;SDS011;48849;48.758;9.158;2023-06-10T00:54:37;9.67;;;8.87;;
2211;SDS011;48849;48.758;9.158;2023-06-10T00:57:05;9.90;;;9.00;;
2211;SDS011;48849;48.758;9.158;2023-06-10T00:59:32;10.53;;;9.63;;
2211;SDS011;48849;48.758;9.158;2023-06-10T01:01:59;9.50;;;8.70;;
2211;SDS011;48849;48.758;9.158;2023-06-10T01:04:27;9.63;;;8.63;;
2211;SDS011;48849;48.758;9.158;2023-06-10T01:06:57;10.00;;;8.70;;
2211;SDS011;48849;48.758;9.158;2023-06-10T01:09:37;9.60;;;8.80;;
2211;SDS011;48849;48.758;9.158;2023-06-10T01:12:10;9.93;;;9.13;;
2211;SDS011;48849;48.758;9.158;2023-06-10T01:14:42;11.27;;;8.70;;
2211;SDS011;48849;48.758;9.158;2023-06-10T01:17:10;10.10;;;9.23;;
2211;SDS011;48849;48.758;9.158;2023-06-10T01:19:41;9.60;;;8.70;;
2211;SDS011;48849;48.758;9.158;2023-06-10T01:22:10;10.27;;;9.07;;
2211;SDS011;48849;48.758;9.158;2023-06-10T01:24:41;10.23;;;9.43;;
2211;SDS011;48849;48.758;9.158;2023-06-10T01:27:09;9.33;;;8.53;;
2211;SDS011;48849;48.758;9.158;2023-06-10T01:29:41;9.60;;;8.83;;
2211;SDS011;48849;48.758;9.158;2023-06-10T01:32:12;10.17;;;9.30;;
2211;SDS011;48849;48.758;9.158;2023-06-10T01:34:42;10.00;;;9.00;;
2211;SDS011;48849;48.758;9.158;2023-06-10T01:37:12;9.90;;;9.03;;
2211;SDS011;48849;48.758;9.158;2023-06-10T01:39:42;10.30;;;9.30;;
2211;SDS011;48849;48.758;9.158;2023-06-10T01:42:09;10.03;;;9.03;;
2211;SDS011;48849;48.758;9.158;2023-06-10T01:44:38;10.17;;;9.20;;
2211;SDS011;48849;48.758;9.158;2023-06-10T01:47:05;10.30;;;9.50;;
2211;SDS011;48849;48.758;9.158;2023-06-10T01:49:32;10.10;;;9.10;;
2211;SDS011;48849;48.758;9.158;2023-06-10T01:51:59;11.43;;;9.60;;
2211;SDS011;48849;48.758;9.158;2023-06-10T01:54:28;9.70;;;8.90;;
2211;SDS011;48849;48.758;9.158;2023-06-10T01:56:54;11.03;;;10.03;;
2211;SDS011;48849;48.758;9.158;2023-06-10T01:59:21;10.80;;;9.90;;
2211;SDS011;48849;48.758;9.158;2023-06-10T02:01:48;10.20;;;9.40;;
2211;SDS011;48849;48.758;9.158;2023-06-10T02:04:15;9.70;;;8.97;;
2211;SDS011;48849;48.758;9.158;2023-06-10T02:06:42;10.73;;;9.73;;
2211;SDS011;48849;48.758;9.158;2023-06-10T02:09:10;10.37;;;9.47;;
2211;SDS011;48849;48.758;9.158;2023-06-10T02:11:38;10.97;;;9.87;;
2211;SDS011;48849;48.758;9.158;2023-06-10T02:14:05;10.73;;;9.73;;
2211;SDS011;48849;48.758;9.158;2023-06-10T02:16:32;10.40;;;9.57;;
2211;SDS011;48849;48.758;9.158;2023-06-10T02:18:58;10.23;;;8.87;;
2211;SDS011;48849;48.758;9.158;2023-06-10T02:21:25;10.60;;;9.70;;
2211;SDS011;48849;48.758;9.158;2023-06-10T02:23:52;9.80;;;8.90;;
2211;SDS011;48849;48.758;9.158;2023-06-10T02:26:19;10.17;;;9.27;;
2211;SDS011;48849;48.758;9.158;2023-06-10T02:28:47;9.30;;;8.50;;
2211;SDS011;48849;48.758;9.158;2023-06-10T02:31:14;11.47;;;10.30;;
2211;SDS011;48849;48.758;9.158;2023-06-10T02:33:43;10.73;;;9.77;;
2211;SDS011;48849;48.758;9.158;2023-06-10T02:36:10;10.60;;;9.70;;
2211;SDS011;48849;48.758;9.158;2023-06-10T02:38:38;10.33;;;9.27;;
2211;SDS011;48849;48.758;9.158;2023-06-10T02:41:05;10.10;;;9.30;;
2211;SDS011;48849;48.758;9.158;2023-06-10T02:43:31;9.80;;;8.90;;
2211;SDS011;48849;48.758;9.158;2023-06-10T02:46:00;10.10;;;9.30;;
2211;SDS011;48849;48.758;9.158;2023-06-10T02:48:26;11.37;;;10.30;;
2211;SDS011;48849;48.758;9.158;2023-06-10T02:50:54;11.27;;;10.27;;
2211;SDS011;48849;48.758;9.158;2023-06-10T02:53:22;10.00;;;9.20;;
2211;SDS011;48849;48.758;9.158;2023-06-10T02:55:48;10.70;;;9.80;;
2211;SDS011;48849;48.758;9.158;2023-06-10T02:58:15;11.00;;;10.10;;
2211;SDS011;48849;48.758;9.158;2023-06-10T03:00:42;11.20;;;10.20;;
2211;SDS011;48849;48.758;9.158;2023-06-10T03:03:11;10.37;;;9.57;;
2211;SDS011;48849;48.758;9.158;2023-06-10T03:05:38;10.53;;;9.73;;
2211;SDS011;48849;48.758;9.158;2023-06-10T03:08:05;10.23;;;9.43;;
2211;SDS011;48849;48.758;9.158;2023-06-10T03:10:32;9.20;;;8.50;;
2211;SDS011;48849;48.758;9.158;2023-06-10T03:12:58;10.25;;;9.35;;
2211;SDS011;48849;48.758;9.158;2023-06-10T03:15:25;10.35;;;9.55;;
2211;SDS011;48849;48.758;9.158;2023-06-10T03:17:53;11.07;;;10.07;;
2211;SDS011;48849;48.758;9.158;2023-06-10T03:20:22;10.60;;;9.60;;
2211;SDS011;48849;48.758;9.158;2023-06-10T03:22:50;10.47;;;9.57;;
2211;SDS011;48849;48.758;9.158;2023-06-10T03:25:17;9.95;;;9.15;;
2211;SDS011;48849;48.758;9.158;2023-06-10T03:27:46;10.70;;;9.80;;
2211;SDS011;48849;48.758;9.158;2023-06-10T03:30:13;9.90;;;9.10;;
2211;SDS011;48849;48.758;9.158;2023-06-10T03:32:40;10.65;;;9.75;;
2211;SDS011;48849;48.758;9.158;2023-06-10T03:35:07;10.80;;;9.90;;
2211;SDS011;48849;48.758;9.158;2023-06-10T03:37:36;10.27;;;9.13;;
2211;SDS011;48849;48.758;9.158;2023-06-10T03:40:03;10.63;;;9.77;;
2211;SDS011;48849;48.758;9.158;2023-06-10T03:42:31;10.83;;;9.83;;
2211;SDS011;48849;48.758;9.158;2023-06-10T03:44:58;10.27;;;9.40;;
2211;SDS011;48849;48.758;9.158;2023-06-10T03:47:24;10.80;;;9.90;;
2211;SDS011;48849;48.758;9.158;2023-06-10T03:49:51;10.53;;;9.63;;
2211;SDS011;48849;48.758;9.158;2023-06-10T03:52:19;9.63;;;8.83;;
2211;SDS011;48849;48.758;9.158;2023-06-10T03:54:47;11.77;;;10.77;;
2211;SDS011;48849;48.758;9.158;2023-06-10T03:57:13;9.80;;;8.90;;
2211;SDS011;48849;48.758;9.158;2023-06-10T03:59:40;10.53;;;9.43;;
2211;SDS011;48849;48.758;9.158;2023-06-10T04:02:07;10.50;;;9.70;;
2211;SDS011;48849;48.758;9.158;2023-06-10T04:04:34;10.97;;;9.90;;
2211;SDS011;48849;48.758;9.158;2023-06-10T04:07:02;10.50;;;9.60;;
2211;SDS011;48849;48.758;9.158;2023-06-10T04:09:29;9.83;;;9.03;;
2211;SDS011;48849;48.758;9.158;2023-06-10T04:11:58;9.77;;;9.00;;
2211;SDS011;48849;48.758;9.158;2023-06-10T04:14:24;10.13;;;9.32;;
2211;SDS011;48849;48.758;9.158;2023-06-10T04:16:51;15.13;;;10.67;;
2211;SDS011;48849;48.758;9.158;2023-06-10T04:19:18;10.77;;;9.87;;
2211;SDS011;48849;48.758;9.158;2023-06-10T04:21:46;10.13;;;9.30;;
2211;SDS011;48849;48.758;9.158;2023-06-10T04:24:12;10.00;;;9.20;;
2211;SDS011;48849;48.758;9.158;2023-06-10T04:26:39;10.25;;;9.27;;
2211;SDS011;48849;48.758;9.158;2023-06-10T04:29:07;10.37;;;9.47;;
2211;SDS011;48849;48.758;9.158;2023-06-10T04:31:34;10.60;;;9.60;;
2211;SDS011;48849;48.758;9.158;2023-06-10T04:34:01;9.13;;;8.43;;
2211;SDS011;48849;48.758;9.158;2023-06-10T04:36:28;9.83;;;8.97;;
2211;SDS011;48849;48.758;9.158;2023-06-10T04:38:55;10.10;;;9.20;;
2211;SDS011;48849;48.758;9.158;2023-06-10T04:41:22;9.23;;;8.43;;
2211;SDS011;48849;48.758;9.158;2023-06-10T04:43:48;9.87;;;9.07;;
2211;SDS011;48849;48.758;9.158;2023-06-10T04:46:16;10.10;;;9.30;;
2211;SDS011;48849;48.758;9.158;2023-06-10T04:48:43;9.30;;;8.47;;
2211;SDS011;48849;48.758;9.158;2023-06-10T04:51:12;9.37;;;8.57;;
2211;SDS011;48849;48.758;9.158;2023-06-10T04:53:39;9.80;;;9.00;;
2211;SDS011;48849;48.758;9.158;2023-06-10T04:56:06;10.30;;;8.57;;
2211;SDS011;48849;48.758;9.158;2023-06-10T04:58:34;9.47;;;8.67;;
2211;SDS011;48849;48.758;9.158;2023-06-10T05:01:00;9.60;;;8.80;;
2211;SDS011;48849;48.758;9.158;2023-06-10T05:03:30;8.63;;;7.83;;
2211;SDS011;48849;48.758;9.158;2023-06-10T05:05:56;9.03;;;7.87;;
2211;SDS011;48849;48.758;9.158;2023-06-10T05:08:23;9.00;;;8.10;;
2211;SDS011;48849;48.758;9.158;2023-06-10T05:10:50;8.60;;;7.90;;
2211;SDS011;48849;48.758;9.158;2023-06-10T05:13:17;8.90;;;8.13;;
2211;SDS011;48849;48.758;9.158;2023-06-10T05:15:44;8.93;;;8.20;;
2211;SDS011;48849;48.758;9.158;2023-06-10T05:18:11;9.13;;;8.30;;
2211;SDS011;48849;48.758;9.158;2023-06-10T05:20:40;9.77;;;8.90;;
2211;SDS011;48849;48.758;9.158;2023-06-10T05:23:07;9.37;;;8.57;;
2211;SDS011;48849;48.758;9.158;2023-06-10T05:25:33;11.10;;;9.20;;
2211;SDS011;48849;48.758;9.158;2023-06-10T05:28:01;9.43;;;8.63;;
2211;SDS011;48849;48.758;9.158;2023-06-10T05:30:28;15.33;;;8.70;;
2211;SDS011;48849;48.758;9.158;2023-06-10T05:32:55;8.17;;;7.57;;
2211;SDS011;48849;48.758;9.158;2023-06-10T05:35:26;9.20;;;8.50;;
2211;SDS011;48849;48.758;9.158;2023-06-10T05:38:00;9.60;;;8.70;;
2211;SDS011;48849;48.758;9.158;2023-06-10T05:40:29;8.90;;;8.20;;
2211;SDS011;48849;48.758;9.158;2023-06-10T05:42:59;8.87;;;8.17;;
2211;SDS011;48849;48.758;9.158;2023-06-10T05:45:26;8.90;;;8.20;;
2211;SDS011;48849;48.758;9.158;2023-06-10T05:48:04;8.30;;;7.60;;
2211;SDS011;48849;48.758;9.158;2023-06-10T05:50:38;9.43;;;8.70;;
2211;SDS011;48849;48.758;9.158;2023-06-10T05:53:17;9.40;;;8.53;;
2211;SDS011;48849;48.758;9.158;2023-06-10T05:55:47;8.83;;;7.97;;
2211;SDS011;48849;48.758;9.158;2023-06-10T05:58:15;8.27;;;7.57;;
2211;SDS011;48849;48.758;9.158;2023-06-10T06:00:44;9.17;;;8.47;;
2211;SDS011;48849;48.758;9.158;2023-06-10T06:03:13;8.90;;;8.10;;
2211;SDS011;48849;48.758;9.158;2023-06-10T06:05:43;10.70;;;8.87;;
2211;SDS011;48849;48.758;9.158;2023-06-10T06:08:14;7.90;;;7.30;;
2211;SDS011;48849;48.758;9.158;2023-06-10T06:10:46;8.80;;;7.90;;
2211;SDS011;48849;48.758;9.158;2023-06-10T06:13:14;8.50;;;7.80;;
2211;SDS011;48849;48.758;9.158;2023-06-10T06:15:44;7.57;;;6.97;;
2211;SDS011;48849;48.758;9.158;2023-06-10T06:18:12;7.70;;;7.10;;
2211;SDS011;48849;48.758;9.158;2023-06-10T06:20:43;7.67;;;7.00;;
2211;SDS011;48849;48.758;9.158;2023-06-10T06:23:13;7.83;;;7.23;;
2211;SDS011;48849;48.758;9.158;2023-06-10T06:25:52;8.73;;;7.93;;
2211;SDS011;48849;48.758;9.158;2023-06-10T06:28:25;8.90;;;8.10;;
2211;SDS011;48849;48.758;9.158;2023-06-10T06:31:00;8.67;;;7.90;;
2211;SDS011;48849;48.758;9.158;2023-06-10T06:33:29;8.27;;;7.53;;
2211;SDS011;48849;48.758;9.158;2023-06-10T06:35:58;8.97;;;8.07;;
2211;SDS011;48849;48.758;9.158;2023-06-10T06:38:28;7.83;;;7.20;;
2211;SDS011;48849;48.758;9.158;2023-06-10T06:40:57;8.70;;;7.90;;
2211;SDS011;48849;48.758;9.158;2023-06-10T06:43:33;8.17;;;7.47;;
2211;SDS011;48849;48.758;9.158;2023-06-10T06:46:01;7.97;;;7.27;;
2211;SDS011;48849;48.758;9.158;2023-06-10T06:48:33;8.30;;;7.57;;
2211;SDS011;48849;48.758;9.158;2023-06-10T06:51:00;8.23;;;7.50;;
2211;SDS011;48849;48.758;9.158;2023-06-10T06:53:29;8.83;;;8.03;;
2211;SDS011;48849;48.758;9.158;2023-06-10T06:55:57;7.90;;;7.20;;
2211;SDS011;48849;48.758;9.158;2023-06-10T06:58:24;8.00;;;7.30;;
2211;SDS011;48849;48.758;9.158;2023-06-10T07:00:56;7.57;;;6.87;;
2211;SDS011;48849;48.758;9.158;2023-06-10T07:03:28;7.77;;;7.17;;
2211;SDS011;48849;48.758;9.158;2023-06-10T07:06:13;7.67;;;7.07;;
2211;SDS011;48849;48.758;9.158;2023-06-10T07:08:55;7.77;;;6.97;;
2211;SDS011;48849;48.758;9.158;2023-06-10T07:11:24;8.13;;;7.53;;
2211;SDS011;48849;48.758;9.158;2023-06-10T07:13:52;7.47;;;6.87;;
2211;SDS011;48849;48.758;9.158;2023-06-10T07:16:22;7.83;;;7.13;;
2211;SDS011;48849;48.758;9.158;2023-06-10T07:18:54;7.60;;;6.87;;
2211;SDS011;48849;48.758;9.158;2023-06-10T07:21:24;8.10;;;7.40;;
2211;SDS011;48849;48.758;9.158;2023-06-10T07:24:06;7.90;;;7.30;;
2211;SDS011;48849;48.758;9.158;2023-06-10T07:26:33;9.40;;;7.00;;
2211;SDS011;48849;48.758;9.158;2023-06-10T07:29:04;7.90;;;7.20;;
2211;SDS011;48849;48.758;9.158;2023-06-10T07:31:36;8.13;;;7.43;;
2211;SDS011;48849;48.758;9.158;2023-06-10T07:34:03;7.67;;;6.97;;
2211;SDS011;48849;48.758;9.158;2023-06-10T07:36:33;7.70;;;7.10;;
2211;SDS011;48849;48.758;9.158;2023-06-10T07:39:04;7.47;;;6.87;;
2211;SDS011;48849;48.758;9.158;2023-06-10T07:41:37;8.70;;;7.90;;
2211;SDS011;48849;48.758;9.158;2023-06-10T07:44:05;7.37;;;6.77;;
2211;SDS011;48849;48.758;9.158;2023-06-10T07:46:32;7.00;;;6.40;;
2211;SDS011;48849;48.758;9.158;2023-06-10T07:49:00;7.23;;;6.63;;
2211;SDS011;48849;48.758;9.158;2023-06-10T07:51:35;7.63;;;6.93;;
2211;SDS011;48849;48.758;9.158;2023-06-10T07:54:07;6.73;;;6.13;;
2211;SDS011;48849;48.758;9.158;2023-06-10T07:56:42;6.67;;;6.07;;
2211;SDS011;48849;48.758;9.158;2023-06-10T07:59:21;7.53;;;6.83;;
2211;SDS011;48849;48.758;9.158;2023-06-10T08:01:51;6.60;;;6.10;;
2211;SDS011;48849;48.758;9.158;2023-06-10T08:04:21;7.00;;;6.47;;
2211;SDS011;48849;48.758;9.158;2023-06-10T08:06:49;6.47;;;5.97;;
2211;SDS011;48849;48.758;9.158;2023-06-10T08:09:20;7.50;;;6.80;;
2211;SDS011;48849;48.758;9.158;2023-06-10T08:11:48;20.20;;;8.50;;
2211;SDS011;48849;48.758;9.158;2023-06-10T08:14:16;36.33;;;7.77;;
2211;SDS011;48849;48.758;9.158;2023-06-10T08:16:44;9.90;;;7.30;;
2211;SDS011;48849;48.758;9.158;2023-06-10T08:19:24;11.37;;;7.13;;
2211;SDS011;48849;48.758;9.158;2023-06-10T08:21:56;13.50;;;7.17;;
2211;SDS011;48849;48.758;9.158;2023-06-10T08:24:32;11.70;;;6.90;;
2211;SDS011;48849;48.758;9.158;2023-06-10T08:27:01;7.50;;;6.80;;
2211;SDS011;48849;48.758;9.158;2023-06-10T08:29:38;8.43;;;7.50;;
2211;SDS011;48849;48.758;9.158;2023-06-10T08:32:06;7.87;;;7.17;;
2211;SDS011;48849;48.758;9.158;2023-06-10T08:34:33;9.10;;;7.60;;
2211;SDS011;48849;48.758;9.158;2023-06-10T08:37:03;7.80;;;7.10;;
2211;SDS011;48849;48.758;9.158;2023-06-10T08:39:37;7.07;;;6.33;;
2211;SDS011;48849;48.758;9.158;2023-06-10T08:42:12;7.60;;;7.00;;
2211;SDS011;48849;48.758;9.158;2023-06-10T08:44:53;7.63;;;7.03;;
2211;SDS011;48849;48.758;9.158;2023-06-10T08:47:29;7.10;;;6.60;;
2211;SDS011;48849;48.758;9.158;2023-06-10T08:50:08;7.23;;;6.63;;
2211;SDS011;48849;48.758;9.158;2023-06-10T08:52:43;7.10;;;6.50;;
2211;SDS011;48849;48.758;9.158;2023-06-10T08:55:34;7.40;;;6.73;;
2211;SDS011;48849;48.758;9.158;2023-06-10T08:58:06;6.97;;;6.43;;
2211;SDS011;48849;48.758;9.158;2023-06-10T09:00:34;6.47;;;5.90;;
2211;SDS011;48849;48.758;9.158;2023-06-10T09:03:11;8.93;;;6.40;;
2211;SDS011;48849;48.758;9.158;2023-06-10T09:05:48;7.23;;;6.63;;
2211;SDS011;48849;48.758;9.158;2023-06-10T09:08:16;6.80;;;6.30;;
2211;SDS011;48849;48.758;9.158;2023-06-10T09:10:49;7.53;;;6.83;;
2211;SDS011;48849;48.758;9.158;2023-06-10T09:13:25;6.07;;;5.67;;
2211;SDS011;48849;48.758;9.158;2023-06-10T09:15:56;6.67;;;6.17;;
2211;SDS011;48849;48.758;9.158;2023-06-10T09:18:26;7.10;;;6.60;;
2211;SDS011;48849;48.758;9.158;2023-06-10T09:20:59;6.70;;;6.20;;
2211;SDS011;48849;48.758;9.158;2023-06-10T09:23:26;6.60;;;5.97;;
2211;SDS011;48849;48.758;9.158;2023-06-10T09:26:01;7.67;;;7.03;;
2211;SDS011;48849;48.758;9.158;2023-06-10T09:28:30;7.20;;;6.60;;
2211;SDS011;48849;48.758;9.158;2023-06-10T09:31:11;6.87;;;6.37;;
2211;SDS011;48849;48.758;9.158;2023-06-10T09:33:46;7.90;;;7.13;;
2211;SDS011;48849;48.758;9.158;2023-06-10T09:36:31;6.47;;;5.97;;
2211;SDS011;48849;48.758;9.158;2023-06-10T09:39:04;7.20;;;6.50;;
2211;SDS011;48849;48.758;9.158;2023-06-10T09:41:51;7.17;;;6.47;;
2211;SDS011;48849;48.758;9.158;2023-06-10T09:44:23;6.27;;;5.73;;
2211;SDS011;48849;48.758;9.158;2023-06-10T09:47:01;6.60;;;6.10;;
2211;SDS011;48849;48.758;9.158;2023-06-10T09:49:28;6.70;;;6.20;;
2211;SDS011;48849;48.758;9.158;2023-06-10T09:51:57;6.37;;;5.80;;
2211;SDS011;48849;48.758;9.158;2023-06-10T09:54:34;6.47;;;5.97;;
2211;SDS011;48849;48.758;9.158;2023-06-10T09:57:06;6.93;;;6.33;;
2211;SDS011;48849;48.758;9.158;2023-06-10T09:59:37;7.63;;;6.77;;
2211;SDS011;48849;48.758;9.158;2023-06-10T10:02:05;6.27;;;5.77;;
2211;SDS011;48849;48.758;9.158;2023-06-10T10:04:44;6.40;;;5.90;;
2211;SDS011;48849;48.758;9.158;2023-06-10T10:07:14;6.00;;;5.60;;
2211;SDS011;48849;48.758;9.158;2023-06-10T10:09:45;5.93;;;5.43;;
2211;SDS011;48849;48.758;9.158;2023-06-10T10:12:19;6.13;;;5.63;;
2211;SDS011;48849;48.758;9.158;2023-06-10T10:14:47;7.53;;;6.83;;
2211;SDS011;48849;48.758;9.158;2023-06-10T10:17:20;7.50;;;6.90;;
2211;SDS011;48849;48.758;9.158;2023-06-10T10:20:04;7.30;;;6.70;;
2211;SDS011;48849;48.758;9.158;2023-06-10T10:22:52;6.90;;;6.40;;
2211;SDS011;48849;48.758;9.158;2023-06-10T10:25:27;6.73;;;6.23;;
2211;SDS011;48849;48.758;9.158;2023-06-10T10:28:09;7.10;;;6.50;;
2211;SDS011;48849;48.758;9.158;2023-06-10T10:30:55;8.37;;;6.93;;
2211;SDS011;48849;48.758;9.158;2023-06-10T10:33:33;9.90;;;6.80;;
2211;SDS011;48849;48.758;9.158;2023-06-10T10:36:09;9.23;;;6.30;;
2211;SDS011;48849;48.758;9.158;2023-06-10T10:38:40;7.17;;;6.67;;
2211;SDS011;48849;48.758;9.158;2023-06-10T10:41:13;7.00;;;6.40;;
2211;SDS011;48849;48.758;9.158;2023-06-10T10:43:53;7.83;;;7.03;;
2211;SDS011;48849;48.758;9.158;2023-06-10T10:46:24;6.73;;;6.03;;
2211;SDS011;48849;48.758;9.158;2023-06-10T10:48:52;11.70;;;6.60;;
2211;SDS011;48849;48.758;9.158;2023-06-10T10:51:22;7.97;;;6.37;;
2211;SDS011;48849;48.758;9.158;2023-06-10T11:00:01;7.73;;;7.07;;
2211;SDS011;48849;48.758;9.158;2023-06-10T11:02:37;6.70;;;6.07;;
2211;SDS011;48849;48.758;9.158;2023-06-10T11:05:14;6.77;;;6.27;;
2211;SDS011;48849;48.758;9.158;2023-06-10T11:07:57;7.70;;;6.27;;
2211;SDS011;48849;48.758;9.158;2023-06-10T11:10:31;10.90;;;6.57;;
2211;SDS011;48849;48.758;9.158;2023-06-10T11:13:07;6.80;;;6.20;;
2211;SDS011;48849;48.758;9.158;2023-06-10T11:15:42;9.17;;;6.23;;
2211;SDS011;48849;48.758;9.158;2023-06-10T11:18:13;6.57;;;6.07;;
2211;SDS011;48849;48.758;9.158;2023-06-10T11:20:53;6.80;;;6.30;;
2211;SDS011;48849;48.758;9.158;2023-06-10T11:23:33;6.67;;;6.17;;
2211;SDS011;48849;48.758;9.158;2023-06-10T11:26:12;6.93;;;6.37;;
2211;SDS011;48849;48.758;9.158;2023-06-10T11:28:42;6.20;;;5.70;;
2211;SDS011;48849;48.758;9.158;2023-06-10T11:31:28;6.70;;;6.17;;
2211;SDS011;48849;48.758;9.158;2023-06-10T11:34:00;7.00;;;6.50;;
2211;SDS011;48849;48.758;9.158;2023-06-10T11:36:32;7.07;;;6.37;;
2211;SDS011;48849;48.758;9.158;2023-06-10T11:39:10;7.17;;;6.60;;
2211;SDS011;48849;48.758;9.158;2023-06-10T11:41:39;6.87;;;6.30;;
2211;SDS011;48849;48.758;9.158;2023-06-10T11:44:15;6.57;;;6.00;;
2211;SDS011;48849;48.758;9.158;2023-06-10T11:46:55;7.23;;;6.70;;
2211;SDS011;48849;48.758;9.158;2023-06-10T11:49:28;9.50;;;8.60;;
2211;SDS011;48849;48.758;9.158;2023-06-10T11:51:55;12.20;;;11.10;;
2211;SDS011;48849;48.758;9.158;2023-06-10T11:54:27;9.70;;;8.90;;
2211;SDS011;48849;48.758;9.158;2023-06-10T11:57:03;8.20;;;7.60;;
2211;SDS011;48849;48.758;9.158;2023-06-10T11:59:30;7.17;;;6.57;;
2211;SDS011;48849;48.758;9.158;2023-06-10T12:02:02;7.07;;;6.50;;
2211;SDS011;48849;48.758;9.158;2023-06-10T12:04:30;7.23;;;6.23;;
2211;SDS011;48849;48.758;9.158;2023-06-10T12:07:02;7.30;;;6.70;;
2211;SDS011;48849;48.758;9.158;2023-06-10T12:09:32;6.90;;;6.20;;
2211;SDS011;48849;48.758;9.158;2023-06-10T12:12:03;8.13;;;7.43;;
2211;SDS011;48849;48.758;9.158;2023-06-10T12:17:37;9.27;;;8.50;;
2211;SDS011;48849;48.758;9.158;2023-06-10T12:20:07;10.70;;;9.80;;
2211;SDS011;48849;48.758;9.158;2023-06-10T12:22:37;8.97;;;8.27;;
2211;SDS011;48849;48.758;9.158;2023-06-10T12:25:06;8.03;;;7.43;;
2211;SDS011;48849;48.758;9.158;2023-06-10T12:27:38;10.10;;;9.20;;
2211;SDS011;48849;48.758;9.158;2023-06-10T12:30:08;11.17;;;10.17;;
2211;SDS011;48849;48.758;9.158;2023-06-10T12:32:38;9.57;;;8.77;;
2211;SDS011;48849;48.758;9.158;2023-06-10T12:35:16;7.63;;;6.40;;
2211;SDS011;48849;48.758;9.158;2023-06-10T12:37:54;7.27;;;6.67;;
2211;SDS011;48849;48.758;9.158;2023-06-10T12:40:26;6.73;;;6.10;;
2211;SDS011;48849;48.758;9.158;2023-06-10T12:42:54;6.43;;;5.90;;
2211;SDS011;48849;48.758;9.158;2023-06-10T12:45:26;9.17;;;8.43;;
2211;SDS011;48849;48.758;9.158;2023-06-10T12:48:09;12.43;;;11.33;;
2211;SDS011;48849;48.758;9.158;2023-06-10T12:50:40;11.60;;;10.50;;
2211;SDS011;48849;48.758;9.158;2023-06-10T12:53:17;7.70;;;7.00;;
2211;SDS011;48849;48.758;9.158;2023-06-10T12:55:48;6.10;;;5.60;;
2211;SDS011;48849;48.758;9.158;2023-06-10T12:58:16;6.70;;;6.10;;
2211;SDS011;48849;48.758;9.158;2023-06-10T13:00:44;7.20;;;6.50;;
2211;SDS011;48849;48.758;9.158;2023-06-10T13:03:17;6.83;;;6.20;;
2211;SDS011;48849;48.758;9.158;2023-06-10T13:05:45;6.40;;;5.90;;
2211;SDS011;48849;48.758;9.158;2023-06-10T13:08:13;5.90;;;5.40;;
2211;SDS011;48849;48.758;9.158;2023-06-10T13:10:40;5.90;;;5.47;;
2211;SDS011;48849;48.758;9.158;2023-06-10T13:13:08;6.10;;;5.60;;
2211;SDS011;48849;48.758;9.158;2023-06-10T13:15:37;22.30;;;20.20;;
2211;SDS011;48849;48.758;9.158;2023-06-10T13:18:06;13.13;;;11.90;;
2211;SDS011;48849;48.758;9.158;2023-06-10T13:20:36;9.43;;;7.40;;
2211;SDS011;48849;48.758;9.158;2023-06-10T13:23:04;10.30;;;9.40;;
2211;SDS011;48849;48.758;9.158;2023-06-10T13:25:32;11.50;;;10.50;;
2211;SDS011;48849;48.758;9.158;2023-06-10T13:27:59;12.10;;;11.10;;
2211;SDS011;48849;48.758;9.158;2023-06-10T13:30:27;8.77;;;8.07;;
2211;SDS011;48849;48.758;9.158;2023-06-10T13:32:56;9.13;;;8.23;;
2211;SDS011;48849;48.758;9.158;2023-06-10T13:35:28;6.27;;;5.87;;
2211;SDS011;48849;48.758;9.158;2023-06-10T13:37:58;6.10;;;5.60;;
2211;SDS011;48849;48.758;9.158;2023-06-10T13:40:27;6.10;;;5.60;;
2211;SDS011;48849;48.758;9.158;2023-06-10T13:42:57;5.70;;;5.20;;
2211;SDS011;48849;48.758;9.158;2023-06-10T13:45:24;5.60;;;5.10;;
2211;SDS011;48849;48.758;9.158;2023-06-10T13:47:53;8.70;;;8.00;;
2211;SDS011;48849;48.758;9.158;2023-06-10T13:50:22;6.70;;;6.10;;
2211;SDS011;48849;48.758;9.158;2023-06-10T13:52:50;6.47;;;5.87;;
2211;SDS011;48849;48.758;9.158;2023-06-10T13:55:30;8.00;;;7.23;;
2211;SDS011;48849;48.758;9.158;2023-06-10T13:58:00;17.47;;;16.07;;
2211;SDS011;48849;48.758;9.158;2023-06-10T14:00:30;12.03;;;11.10;;
2211;SDS011;48849;48.758;9.158;2023-06-10T14:02:57;5.93;;;5.50;;
2211;SDS011;48849;48.758;9.158;2023-06-10T14:05:27;7.43;;;6.10;;
2211;SDS011;48849;48.758;9.158;2023-06-10T14:07:54;6.47;;;5.97;;
2211;SDS011;48849;48.758;9.158;2023-06-10T14:10:22;8.00;;;7.40;;
2211;SDS011;48849;48.758;9.158;2023-06-10T14:12:51;7.27;;;6.60;;
2211;SDS011;48849;48.758;9.158;2023-06-10T14:15:20;13.07;;;11.87;;
2211;SDS011;48849;48.758;9.158;2023-06-10T14:17:49;9.77;;;9.03;;
2211;SDS011;48849;48.758;9.158;2023-06-10T14:20:16;11.40;;;10.50;;
2211;SDS011;48849;48.758;9.158;2023-06-10T14:22:44;10.23;;;9.43;;
2211;SDS011;48849;48.758;9.158;2023-06-10T14:25:14;16.97;;;15.57;;
2211;SDS011;48849;48.758;9.158;2023-06-10T14:27:42;15.10;;;13.80;;
2211;SDS011;48849;48.758;9.158;2023-06-10T14:30:14;11.30;;;10.40;;
2211;SDS011;48849;48.758;9.158;2023-06-10T14:32:43;11.03;;;10.23;;
2211;SDS011;48849;48.758;9.158;2023-06-10T14:35:12;7.97;;;7.27;;
2211;SDS011;48849;48.758;9.158;2023-06-10T14:37:40;5.97;;;5.47;;
2211;SDS011;48849;48.758;9.158;2023-06-10T14:40:10;6.33;;;5.83;;
2211;SDS011;48849;48.758;9.158;2023-06-10T14:42:46;7.17;;;6.57;;
2211;SDS011;48849;48.758;9.158;2023-06-10T14:45:20;14.70;;;13.50;;
2211;SDS011;48849;48.758;9.158;2023-06-10T14:47:48;6.50;;;6.00;;
2211;SDS011;48849;48.758;9.158;2023-06-10T14:50:15;7.67;;;7.07;;
2211;SDS011;48849;48.758;9.158;2023-06-10T14:52:43;7.67;;;6.87;;
2211;SDS011;48849;48.758;9.158;2023-06-10T14:55:10;8.40;;;7.70;;
2211;SDS011;48849;48.758;9.158;2023-06-10T14:57:38;11.60;;;10.70;;
2211;SDS011;48849;48.758;9.158;2023-06-10T15:00:11;10.07;;;9.07;;
2211;SDS011;48849;48.758;9.158;2023-06-10T15:02:46;8.90;;;8.10;;
2211;SDS011;48849;48.758;9.158;2023-06-10T15:05:16;5.80;;;5.40;;
2211;SDS011;48849;48.758;9.158;2023-06-10T15:07:45;6.30;;;5.80;;
2211;SDS011;48849;48.758;9.158;2023-06-10T15:10:13;6.40;;;5.90;;
2211;SDS011;48849;48.758;9.158;2023-06-10T15:12:41;6.00;;;5.60;;
2211;SDS011;48849;48.758;9.158;2023-06-10T15:15:09;6.30;;;5.80;;
2211;SDS011;48849;48.758;9.158;2023-06-10T15:17:54;7.10;;;6.50;;
2211;SDS011;48849;48.758;9.158;2023-06-10T15:20:21;8.87;;;7.23;;
2211;SDS011;48849;48.758;9.158;2023-06-10T15:22:52;6.40;;;5.90;;